createdAt,value
2016-02-19T00:00:16.484Z,950.6
2016-02-19T00:01:16.455Z,950.62
2016-02-19T00:02:16.396Z,950.65
2016-02-19T00:03:16.305Z,950.61
2016-02-19T00:04:16.260Z,950.58
2016-02-19T00:05:16.185Z,950.55
2016-02-19T00:06:16.141Z,950.58
2016-02-19T00:07:16.081Z,950.53
2016-02-19T00:08:16.022Z,950.54
2016-02-19T00:09:15.962Z,950.54
2016-02-19T00:10:15.918Z,950.52
2016-02-19T00:11:15.842Z,950.51
2016-02-19T00:12:15.766Z,950.54
2016-02-19T00:13:15.738Z,950.58
2016-02-19T00:14:15.693Z,950.57
2016-02-19T00:15:15.603Z,950.58
2016-02-19T00:16:15.558Z,950.58
2016-02-19T00:17:15.498Z,950.61
2016-02-19T00:18:15.423Z,950.58
2016-02-19T00:19:15.379Z,950.58
2016-02-19T00:20:15.334Z,950.53
2016-02-19T00:21:15.259Z,950.54
2016-02-19T00:22:15.184Z,950.52
2016-02-19T00:23:15.124Z,950.51
2016-02-19T00:24:15.064Z,950.53
2016-02-19T00:25:15.083Z,950.55
2016-02-19T00:26:14.960Z,950.54
2016-02-19T00:27:14.917Z,950.56
2016-02-19T00:28:14.841Z,950.55
2016-02-19T00:29:14.796Z,950.55
2016-02-19T00:30:14.725Z,950.57
2016-02-19T00:31:14.665Z,950.55
2016-02-19T00:32:14.606Z,950.57
2016-02-19T00:33:14.546Z,950.6
2016-02-19T00:34:14.486Z,950.6
2016-02-19T00:35:14.425Z,950.55
2016-02-19T00:36:14.445Z,950.56
2016-02-19T00:37:14.322Z,950.54
2016-02-19T00:38:14.261Z,950.57
2016-02-19T00:39:14.203Z,950.55
2016-02-19T00:40:14.127Z,950.52
2016-02-19T00:41:14.083Z,950.55
2016-02-19T00:42:14.023Z,950.52
2016-02-19T00:43:13.963Z,950.52
2016-02-19T00:44:13.903Z,950.52
2016-02-19T00:45:13.859Z,950.46
2016-02-19T00:46:13.799Z,950.52
2016-02-19T00:47:13.724Z,950.47
2016-02-19T00:48:13.663Z,950.5
2016-02-19T00:49:13.620Z,950.48
2016-02-19T00:50:13.544Z,950.5
2016-02-19T00:51:13.516Z,950.52
2016-02-19T00:52:13.456Z,950.53
2016-02-19T00:53:13.365Z,950.53
2016-02-19T00:54:13.321Z,950.52
2016-02-19T00:55:13.261Z,950.55
2016-02-19T00:56:13.185Z,950.53
2016-02-19T00:57:13.173Z,950.56
2016-02-19T00:58:13.066Z,950.54
2016-02-19T00:59:13.006Z,950.54
2016-02-19T01:00:12.977Z,950.55
2016-02-19T01:01:12.902Z,950.55
2016-02-19T01:02:12.857Z,950.53
2016-02-19T01:03:12.798Z,950.5
2016-02-19T01:04:12.723Z,950.5
2016-02-19T01:05:12.678Z,950.54
2016-02-19T01:06:12.612Z,950.54
2016-02-19T01:07:12.583Z,950.57
2016-02-19T01:08:12.492Z,950.56
2016-02-19T01:09:12.448Z,950.57
2016-02-19T01:10:12.373Z,950.55
2016-02-19T01:11:12.328Z,950.57
2016-02-19T01:12:12.268Z,950.61
2016-02-19T01:13:12.209Z,950.6
2016-02-19T01:14:12.149Z,950.55
2016-02-19T01:15:12.089Z,950.59
2016-02-19T01:16:12.029Z,950.6
2016-02-19T01:17:11.970Z,950.6
2016-02-19T01:18:11.956Z,950.65
2016-02-19T01:19:11.850Z,950.67
2016-02-19T01:20:11.789Z,950.68
2016-02-19T01:21:11.777Z,950.68
2016-02-19T01:22:11.687Z,950.7
2016-02-19T01:23:11.611Z,950.69
2016-02-19T01:24:11.566Z,950.71
2016-02-19T01:25:11.507Z,950.7
2016-02-19T01:26:11.447Z,950.67
2016-02-19T01:27:11.387Z,950.62
2016-02-19T01:28:11.327Z,950.68
2016-02-19T01:29:11.267Z,950.65
2016-02-19T01:30:11.192Z,950.64
2016-02-19T01:31:11.164Z,950.64
2016-02-19T01:32:11.089Z,950.64
2016-02-19T01:33:11.044Z,950.63
2016-02-19T01:34:10.968Z,950.62
2016-02-19T01:35:10.908Z,950.59
2016-02-19T01:36:10.864Z,950.6
2016-02-19T01:37:10.804Z,950.62
2016-02-19T01:38:10.729Z,950.6
2016-02-19T01:39:10.685Z,950.64
2016-02-19T01:40:10.624Z,950.58
2016-02-19T01:41:10.566Z,950.66
2016-02-19T01:42:10.505Z,950.56
2016-02-19T01:43:10.445Z,950.59
2016-02-19T01:44:10.402Z,950.58
2016-02-19T01:45:10.357Z,950.59
2016-02-19T01:46:10.282Z,950.59
2016-02-19T01:47:10.223Z,950.58
2016-02-19T01:48:10.178Z,950.57
2016-02-19T01:49:10.087Z,950.54
2016-02-19T01:50:10.043Z,950.53
2016-02-19T01:51:09.967Z,950.6
2016-02-19T01:52:09.923Z,950.57
2016-02-19T01:53:09.879Z,950.57
2016-02-19T01:54:09.835Z,950.54
2016-02-19T01:55:09.759Z,950.56
2016-02-19T01:56:09.700Z,950.54
2016-02-19T01:57:09.639Z,950.54
2016-02-19T01:58:09.627Z,950.57
2016-02-19T01:59:09.504Z,950.56
2016-02-19T02:00:09.460Z,950.54
2016-02-19T02:01:09.385Z,950.54
2016-02-19T02:02:09.340Z,950.56
2016-02-19T02:03:09.296Z,950.56
2016-02-19T02:04:09.236Z,950.52
2016-02-19T02:05:09.161Z,950.55
2016-02-19T02:06:09.116Z,950.54
2016-02-19T02:07:09.057Z,950.55
2016-02-19T02:08:08.997Z,950.57
2016-02-19T02:09:08.969Z,950.59
2016-02-19T02:10:08.877Z,950.54
2016-02-19T02:11:08.802Z,950.55
2016-02-19T02:12:08.742Z,950.59
2016-02-19T02:13:08.699Z,950.6
2016-02-19T02:14:08.654Z,950.61
2016-02-19T02:15:08.578Z,950.61
2016-02-19T02:16:08.519Z,950.62
2016-02-19T02:17:08.443Z,950.67
2016-02-19T02:18:08.399Z,950.7
2016-02-19T02:19:08.355Z,950.68
2016-02-19T02:20:08.311Z,950.68
2016-02-19T02:21:08.251Z,950.71
2016-02-19T02:22:08.176Z,950.73
2016-02-19T02:23:08.101Z,950.74
2016-02-19T02:24:08.056Z,950.73
2016-02-19T02:25:08.011Z,950.76
2016-02-19T02:26:07.936Z,950.77
2016-02-19T02:27:07.892Z,950.76
2016-02-19T02:28:07.801Z,950.72
2016-02-19T02:29:07.757Z,950.77
2016-02-19T02:30:07.728Z,950.76
2016-02-19T02:31:07.636Z,950.74
2016-02-19T02:32:07.594Z,950.74
2016-02-19T02:33:07.533Z,950.75
2016-02-19T02:34:07.473Z,950.81
2016-02-19T02:35:07.414Z,950.77
2016-02-19T02:36:07.354Z,950.75
2016-02-19T02:37:07.357Z,950.79
2016-02-19T02:38:07.249Z,950.77
2016-02-19T02:39:07.190Z,950.81
2016-02-19T02:40:07.130Z,950.84
2016-02-19T02:41:07.070Z,950.86
2016-02-19T02:42:07.011Z,950.86
2016-02-19T02:43:06.948Z,950.82
2016-02-19T02:44:07.833Z,950.84
2016-02-19T02:45:06.833Z,950.84
2016-02-19T02:46:08.062Z,950.83
2016-02-19T02:47:06.721Z,950.86
2016-02-19T02:48:06.630Z,950.83
2016-02-19T02:49:06.617Z,950.86
2016-02-19T02:50:06.542Z,950.86
2016-02-19T02:51:06.482Z,950.85
2016-02-19T02:52:06.453Z,950.85
2016-02-19T02:53:06.362Z,950.85
2016-02-19T02:54:06.319Z,950.85
2016-02-19T02:55:06.243Z,950.87
2016-02-19T02:56:06.192Z,950.87
2016-02-19T02:57:06.148Z,950.89
2016-02-19T02:58:06.056Z,950.89
2016-02-19T02:59:06.028Z,950.88
2016-02-19T03:00:05.952Z,950.92
2016-02-19T03:01:05.909Z,950.92
2016-02-19T03:02:05.848Z,950.96
2016-02-19T03:03:05.820Z,950.98
2016-02-19T03:04:05.697Z,950.99
2016-02-19T03:05:05.716Z,950.98
2016-02-19T03:06:05.641Z,950.96
2016-02-19T03:07:05.566Z,950.98
2016-02-19T03:08:05.522Z,950.98
2016-02-19T03:09:05.446Z,951.02
2016-02-19T03:10:05.354Z,951.03
2016-02-19T03:11:05.326Z,951.05
2016-02-19T03:12:05.250Z,951.07
2016-02-19T03:13:05.190Z,951.06
2016-02-19T03:14:05.130Z,951.03
2016-02-19T03:15:05.071Z,951.03
2016-02-19T03:16:05.026Z,951.07
2016-02-19T03:17:04.952Z,951.03
2016-02-19T03:18:04.954Z,950.99
2016-02-19T03:19:04.879Z,950.99
2016-02-19T03:20:04.850Z,950.97
2016-02-19T03:21:04.728Z,951
2016-02-19T03:22:04.668Z,951.01
2016-02-19T03:23:04.623Z,951.02
2016-02-19T03:24:04.548Z,950.99
2016-02-19T03:25:04.504Z,950.98
2016-02-19T03:26:04.475Z,951.03
2016-02-19T03:27:04.432Z,951.06
2016-02-19T03:28:04.325Z,951.03
2016-02-19T03:29:04.264Z,951.07
2016-02-19T03:30:04.189Z,951.07
2016-02-19T03:31:04.145Z,951.11
2016-02-19T03:32:04.086Z,951.07
2016-02-19T03:33:04.025Z,951.1
2016-02-19T03:34:03.981Z,951.1
2016-02-19T03:35:03.891Z,951.12
2016-02-19T03:36:03.877Z,951.13
2016-02-19T03:37:03.803Z,951.13
2016-02-19T03:38:03.789Z,951.12
2016-02-19T03:39:03.730Z,951.09
2016-02-19T03:40:03.638Z,951.11
2016-02-19T03:41:03.563Z,951.1
2016-02-19T03:42:03.502Z,951.07
2016-02-19T03:43:03.443Z,951.07
2016-02-19T03:44:03.383Z,951.11
2016-02-19T03:45:03.323Z,951.07
2016-02-19T03:46:03.280Z,951.09
2016-02-19T03:47:03.219Z,951.11
2016-02-19T03:48:03.144Z,951.09
2016-02-19T03:49:03.084Z,951.11
2016-02-19T03:50:03.056Z,951.06
2016-02-19T03:51:02.980Z,951.08
2016-02-19T03:52:02.920Z,951.09
2016-02-19T03:53:02.860Z,951.06
2016-02-19T03:54:02.801Z,951.06
2016-02-19T03:55:02.756Z,951.09
2016-02-19T03:56:02.698Z,951.09
2016-02-19T03:57:02.637Z,951.08
2016-02-19T03:58:02.562Z,951.15
2016-02-19T03:59:02.517Z,951.11
2016-02-19T04:00:02.473Z,951.15
2016-02-19T04:01:02.382Z,951.12
2016-02-19T04:02:02.353Z,951.12
2016-02-19T04:03:02.278Z,951.11
2016-02-19T04:04:02.219Z,951.15
2016-02-19T04:05:02.158Z,951.18
2016-02-19T04:06:02.114Z,951.14
2016-02-19T04:07:02.055Z,951.19
2016-02-19T04:08:02.010Z,951.18
2016-02-19T04:09:01.935Z,951.16
2016-02-19T04:10:01.875Z,951.12
2016-02-19T04:11:01.815Z,951.15
2016-02-19T04:12:01.740Z,951.16
2016-02-19T04:13:01.696Z,951.17
2016-02-19T04:14:01.636Z,951.15
2016-02-19T04:15:01.576Z,951.18
2016-02-19T04:16:01.521Z,951.2
2016-02-19T04:17:01.446Z,951.19
2016-02-19T04:18:01.417Z,951.23
2016-02-19T04:19:01.326Z,951.18
2016-02-19T04:20:01.298Z,951.2
2016-02-19T04:21:01.237Z,951.2
2016-02-19T04:22:01.162Z,951.22
2016-02-19T04:23:01.118Z,951.19
2016-02-19T04:24:01.059Z,951.21
2016-02-19T04:25:00.998Z,951.21
2016-02-19T04:26:00.939Z,951.2
2016-02-19T04:27:00.925Z,951.28
2016-02-19T04:28:00.819Z,951.23
2016-02-19T04:29:00.758Z,951.27
2016-02-19T04:30:00.731Z,951.3
2016-02-19T04:31:00.639Z,951.31
2016-02-19T04:32:00.595Z,951.29
2016-02-19T04:33:00.536Z,951.31
2016-02-19T04:34:00.475Z,951.29
2016-02-19T04:35:00.431Z,951.31
2016-02-19T04:36:00.341Z,951.31
2016-02-19T04:37:00.296Z,951.35
2016-02-19T04:38:00.252Z,951.31
2016-02-19T04:39:00.176Z,951.35
2016-02-19T04:40:00.133Z,951.32
2016-02-19T04:41:00.057Z,951.37
2016-02-19T04:42:00.013Z,951.35
2016-02-19T04:42:59.953Z,951.37
2016-02-19T04:43:59.940Z,951.33
2016-02-19T04:44:59.833Z,951.38
2016-02-19T04:45:59.774Z,951.34
2016-02-19T04:46:59.698Z,951.35
2016-02-19T04:47:59.654Z,951.36
2016-02-19T04:48:59.593Z,951.34
2016-02-19T04:49:59.565Z,951.35
2016-02-19T04:50:59.474Z,951.37
2016-02-19T04:51:59.462Z,951.36
2016-02-19T04:52:59.387Z,951.35
2016-02-19T04:53:59.311Z,951.36
2016-02-19T04:54:59.250Z,951.34
2016-02-19T04:55:59.192Z,951.37
2016-02-19T04:56:59.131Z,951.37
2016-02-19T04:57:59.103Z,951.37
2016-02-19T04:58:59.011Z,951.35
2016-02-19T04:59:58.952Z,951.37
2016-02-19T05:00:58.908Z,951.39
2016-02-19T05:01:58.847Z,951.36
2016-02-19T05:02:58.773Z,951.41
2016-02-19T05:03:58.713Z,951.41
2016-02-19T05:04:58.683Z,951.44
2016-02-19T05:05:58.625Z,951.45
2016-02-19T05:06:58.533Z,951.43
2016-02-19T05:07:58.489Z,951.45
2016-02-19T05:08:58.429Z,951.47
2016-02-19T05:09:58.369Z,951.46
2016-02-19T05:10:58.325Z,951.47
2016-02-19T05:11:58.265Z,951.48
2016-02-19T05:12:58.206Z,951.46
2016-02-19T05:13:58.161Z,951.51
2016-02-19T05:14:58.101Z,951.52
2016-02-19T05:15:58.011Z,951.51
2016-02-19T05:16:57.966Z,951.5
2016-02-19T05:17:57.922Z,951.52
2016-02-19T05:18:57.846Z,951.5
2016-02-19T05:19:57.787Z,951.53
2016-02-19T05:20:57.728Z,951.54
2016-02-19T05:21:57.652Z,951.48
2016-02-19T05:22:57.624Z,951.51
2016-02-19T05:23:57.501Z,951.49
2016-02-19T05:24:57.425Z,951.47
2016-02-19T05:25:57.375Z,951.48
2016-02-19T05:26:57.294Z,951.49
2016-02-19T05:27:57.274Z,951.51
2016-02-19T05:28:57.179Z,951.56
2016-02-19T05:29:57.113Z,951.54
2016-02-19T05:30:57.051Z,951.5
2016-02-19T05:31:56.989Z,951.54
2016-02-19T05:32:56.928Z,951.53
2016-02-19T05:33:56.866Z,951.62
2016-02-19T05:34:56.804Z,951.57
2016-02-19T05:35:56.727Z,951.56
2016-02-19T05:36:56.683Z,951.57
2016-02-19T05:37:56.653Z,951.56
2016-02-19T05:38:56.562Z,951.58
2016-02-19T05:39:56.531Z,951.61
2016-02-19T05:40:56.520Z,951.62
2016-02-19T05:41:56.412Z,951.61
2016-02-19T05:42:56.322Z,951.59
2016-02-19T05:43:56.278Z,951.62
2016-02-19T05:44:56.217Z,951.66
2016-02-19T05:45:56.173Z,951.62
2016-02-19T05:46:56.114Z,951.67
2016-02-19T05:47:56.038Z,951.66
2016-02-19T05:48:56.025Z,951.67
2016-02-19T05:49:55.949Z,951.67
2016-02-19T05:50:55.875Z,951.69
2016-02-19T05:51:55.830Z,951.7
2016-02-19T05:52:55.739Z,951.69
2016-02-19T05:53:55.711Z,951.7
2016-02-19T05:54:55.650Z,951.7
2016-02-19T05:55:55.607Z,951.68
2016-02-19T05:56:55.530Z,951.7
2016-02-19T05:57:55.472Z,951.68
2016-02-19T05:58:55.396Z,951.68
2016-02-19T05:59:55.351Z,951.68
2016-02-19T06:00:55.291Z,951.66
2016-02-19T06:01:55.232Z,951.67
2016-02-19T06:02:55.219Z,951.67
2016-02-19T06:03:55.113Z,951.68
2016-02-19T06:04:55.084Z,951.65
2016-02-19T06:05:55.015Z,951.69
2016-02-19T06:06:54.940Z,951.64
2016-02-19T06:07:54.895Z,951.64
2016-02-19T06:08:54.820Z,951.64
2016-02-19T06:09:54.775Z,951.58
2016-02-19T06:10:54.732Z,951.66
2016-02-19T06:11:54.656Z,951.61
2016-02-19T06:12:54.612Z,951.67
2016-02-19T06:13:54.552Z,951.65
2016-02-19T06:14:54.477Z,951.67
2016-02-19T06:15:54.433Z,951.67
2016-02-19T06:16:54.419Z,951.69
2016-02-19T06:17:54.298Z,951.65
2016-02-19T06:18:54.566Z,951.71
2016-02-19T06:19:54.209Z,951.67
2016-02-19T06:20:54.118Z,951.65
2016-02-19T06:21:54.168Z,951.63
2016-02-19T06:22:54.107Z,951.66
2016-02-19T06:23:53.970Z,951.62
2016-02-19T06:24:53.910Z,951.65
2016-02-19T06:25:53.866Z,951.59
2016-02-19T06:26:53.806Z,951.63
2016-02-19T06:27:53.715Z,951.64
2016-02-19T06:28:53.671Z,951.68
2016-02-19T06:29:53.611Z,951.65
2016-02-19T06:30:53.582Z,951.68
2016-02-19T06:31:53.523Z,951.67
2016-02-19T06:32:53.447Z,951.63
2016-02-19T06:33:53.403Z,951.63
2016-02-19T06:34:53.311Z,951.69
2016-02-19T06:35:53.268Z,951.68
2016-02-19T06:36:53.223Z,951.68
2016-02-19T06:37:53.164Z,951.72
2016-02-19T06:38:53.136Z,951.69
2016-02-19T06:39:53.060Z,951.69
2016-02-19T06:40:52.969Z,951.7
2016-02-19T06:41:52.987Z,951.75
2016-02-19T06:42:52.880Z,951.72
2016-02-19T06:45:59.638Z,951.74
2016-02-19T06:46:59.579Z,951.75
2016-02-19T06:47:59.519Z,951.78
2016-02-19T06:48:59.459Z,951.85
2016-02-19T06:49:59.415Z,951.82
2016-02-19T06:50:59.339Z,951.88
2016-02-19T06:51:59.296Z,951.86
2016-02-19T06:52:59.235Z,951.86
2016-02-19T06:53:59.239Z,951.88
2016-02-19T06:54:59.132Z,951.9
2016-02-19T06:55:59.057Z,951.9
2016-02-19T06:56:58.996Z,951.88
2016-02-19T06:57:58.921Z,951.91
2016-02-19T06:58:58.908Z,951.95
2016-02-19T06:59:58.832Z,952
2016-02-19T07:00:58.757Z,951.99
2016-02-19T07:01:58.729Z,951.98
2016-02-19T07:02:58.668Z,952.01
2016-02-19T07:03:58.609Z,952.04
2016-02-19T07:04:58.523Z,952.04
2016-02-19T07:05:58.463Z,952.08
2016-02-19T07:06:58.497Z,952.03
2016-02-19T07:07:58.390Z,952.08
2016-02-19T07:08:58.300Z,952.15
2016-02-19T07:09:58.239Z,952.12
2016-02-19T07:10:58.320Z,952.11
2016-02-19T07:11:58.136Z,952.13
2016-02-19T07:12:58.060Z,952.15
2016-02-19T07:13:58.031Z,952.18
2016-02-19T07:14:57.971Z,952.16
2016-02-19T07:15:57.912Z,952.19
2016-02-19T07:16:57.852Z,952.22
2016-02-19T07:17:57.823Z,952.21
2016-02-19T07:18:57.732Z,952.25
2016-02-19T07:19:57.719Z,952.23
2016-02-19T07:20:57.628Z,952.24
2016-02-19T07:21:57.616Z,952.25
2016-02-19T07:22:57.572Z,952.26
2016-02-19T07:23:57.433Z,952.27
2016-02-19T07:24:57.388Z,952.28
2016-02-19T07:25:57.330Z,952.29
2016-02-19T07:26:57.269Z,952.29
2016-02-19T07:27:57.272Z,952.34
2016-02-19T07:28:57.446Z,952.29
2016-02-19T07:29:57.090Z,952.28
2016-02-19T07:30:57.046Z,952.33
2016-02-19T07:31:56.986Z,952.33
2016-02-19T07:32:56.927Z,952.32
2016-02-19T07:33:56.867Z,952.33
2016-02-19T07:34:56.822Z,952.28
2016-02-19T07:35:56.762Z,952.31
2016-02-19T07:36:56.703Z,952.32
2016-02-19T07:37:56.659Z,952.38
2016-02-19T07:38:56.583Z,952.39
2016-02-19T07:39:56.523Z,952.41
2016-02-19T07:40:56.479Z,952.45
2016-02-19T07:41:56.403Z,952.43
2016-02-19T07:42:56.344Z,952.47
2016-02-19T07:43:56.300Z,952.47
2016-02-19T07:44:56.255Z,952.46
2016-02-19T07:45:56.211Z,952.45
2016-02-19T07:46:56.120Z,952.49
2016-02-19T07:47:56.061Z,952.52
2016-02-19T07:48:56.016Z,952.48
2016-02-19T07:49:55.987Z,952.48
2016-02-19T07:50:55.913Z,952.49
2016-02-19T07:51:55.852Z,952.52
2016-02-19T07:52:55.824Z,952.52
2016-02-19T07:53:55.717Z,952.52
2016-02-19T07:54:55.673Z,952.51
2016-02-19T07:55:55.613Z,952.49
2016-02-19T07:56:55.569Z,952.59
2016-02-19T07:57:55.619Z,952.54
2016-02-19T07:58:55.496Z,952.53
2016-02-19T07:59:55.390Z,952.53
2016-02-19T08:00:55.314Z,952.55
2016-02-19T08:01:55.285Z,952.55
2016-02-19T08:02:55.226Z,952.57
2016-02-19T08:03:55.150Z,952.57
2016-02-19T08:04:55.091Z,952.58
2016-02-19T08:05:55.098Z,952.58
2016-02-19T08:06:54.989Z,952.55
2016-02-19T08:07:54.929Z,952.61
2016-02-19T08:08:54.869Z,952.62
2016-02-19T08:09:54.809Z,952.63
2016-02-19T08:10:54.764Z,952.64
2016-02-19T08:11:54.720Z,952.65
2016-02-19T08:12:54.661Z,952.67
2016-02-19T08:13:54.586Z,952.66
2016-02-19T08:14:54.525Z,952.66
2016-02-19T08:15:54.481Z,952.7
2016-02-19T08:16:54.453Z,952.72
2016-02-19T08:17:54.378Z,952.72
2016-02-19T08:18:54.318Z,952.73
2016-02-19T08:19:54.241Z,952.75
2016-02-19T08:20:54.199Z,952.77
2016-02-19T08:21:54.154Z,952.77
2016-02-19T08:22:54.079Z,952.76
2016-02-19T08:23:54.035Z,952.78
2016-02-19T08:24:53.974Z,952.85
2016-02-19T08:25:53.915Z,952.82
2016-02-19T08:26:53.902Z,952.82
2016-02-19T08:27:53.920Z,952.8
2016-02-19T08:28:53.907Z,952.83
2016-02-19T08:29:53.690Z,952.84
2016-02-19T08:30:53.632Z,952.83
2016-02-19T08:31:53.587Z,952.87
2016-02-19T08:32:53.512Z,952.83
2016-02-19T08:33:53.452Z,952.83
2016-02-19T08:34:53.423Z,952.9
2016-02-19T08:35:53.364Z,952.94
2016-02-19T08:36:53.273Z,952.94
2016-02-19T08:37:53.245Z,952.96
2016-02-19T08:38:53.231Z,952.97
2016-02-19T08:39:53.311Z,953.01
2016-02-19T08:40:53.158Z,952.99
2016-02-19T08:41:53.020Z,952.99
2016-02-19T08:42:52.928Z,953.01
2016-02-19T08:43:52.995Z,953.05
2016-02-19T08:44:52.856Z,953.05
2016-02-19T08:45:52.781Z,953.03
2016-02-19T08:46:52.721Z,953.05
2016-02-19T08:47:52.661Z,953.06
2016-02-19T08:48:52.649Z,953.06
2016-02-19T08:49:52.589Z,953.08
2016-02-19T08:50:52.497Z,953.09
2016-02-19T08:51:52.453Z,953.14
2016-02-19T08:52:52.377Z,953.12
2016-02-19T08:53:52.366Z,953.14
2016-02-19T08:54:52.274Z,953.15
2016-02-19T08:55:52.214Z,953.11
2016-02-19T08:56:52.232Z,953.1
2016-02-19T08:57:52.094Z,953.14
2016-02-19T08:58:52.097Z,953.11
2016-02-19T08:59:52.006Z,953.13
2016-02-19T09:00:51.915Z,953.16
2016-02-19T09:01:51.934Z,953.19
2016-02-19T09:02:51.811Z,953.21
2016-02-19T09:03:51.814Z,953.24
2016-02-19T09:04:51.707Z,953.28
2016-02-19T09:05:51.648Z,953.25
2016-02-19T09:06:51.603Z,953.27
2016-02-19T09:07:51.528Z,953.3
2016-02-19T09:08:51.484Z,953.34
2016-02-19T09:09:51.423Z,953.31
2016-02-19T09:10:51.379Z,953.28
2016-02-19T09:11:51.367Z,953.34
2016-02-19T09:12:51.245Z,953.32
2016-02-19T09:13:51.200Z,953.39
2016-02-19T09:14:51.125Z,953.32
2016-02-19T09:15:51.080Z,953.39
2016-02-19T09:16:51.099Z,953.37
2016-02-19T09:17:50.976Z,953.44
2016-02-19T09:18:50.917Z,953.43
2016-02-19T09:19:50.903Z,953.5
2016-02-19T09:20:50.843Z,953.45
2016-02-19T09:21:50.721Z,953.48
2016-02-19T09:22:50.693Z,953.47
2016-02-19T09:23:50.649Z,953.49
2016-02-19T09:24:50.605Z,953.5
2016-02-19T09:25:50.576Z,953.53
2016-02-19T09:26:50.454Z,953.49
2016-02-19T09:27:50.393Z,953.52
2016-02-19T09:28:50.335Z,953.5
2016-02-19T09:29:50.274Z,953.52
2016-02-19T09:30:50.214Z,953.57
2016-02-19T09:31:50.185Z,953.59
2016-02-19T09:32:50.110Z,953.58
2016-02-19T09:33:50.066Z,953.59
2016-02-19T09:34:49.991Z,953.59
2016-02-19T09:35:49.993Z,953.63
2016-02-19T09:36:49.903Z,953.61
2016-02-19T09:37:49.826Z,953.62
2016-02-19T09:38:49.784Z,953.63
2016-02-19T09:39:49.707Z,953.69
2016-02-19T09:40:49.647Z,953.67
2016-02-19T09:41:49.603Z,953.68
2016-02-19T09:42:49.559Z,953.71
2016-02-19T09:43:49.499Z,953.74
2016-02-19T09:44:49.425Z,953.71
2016-02-19T09:45:49.380Z,953.73
2016-02-19T09:46:49.319Z,953.78
2016-02-19T09:47:49.260Z,953.79
2016-02-19T09:48:49.216Z,953.78
2016-02-19T09:49:49.156Z,953.84
2016-02-19T09:50:49.174Z,953.82
2016-02-19T09:51:49.068Z,953.83
2016-02-19T09:52:48.992Z,953.85
2016-02-19T09:53:48.932Z,953.85
2016-02-19T09:54:48.873Z,953.87
2016-02-19T09:55:48.860Z,953.84
2016-02-19T09:56:48.799Z,953.9
2016-02-19T09:57:48.693Z,953.9
2016-02-19T09:58:48.649Z,953.93
2016-02-19T09:59:48.605Z,953.94
2016-02-19T10:00:48.513Z,953.96
2016-02-19T10:01:48.563Z,953.96
2016-02-19T10:02:48.426Z,953.94
2016-02-19T10:03:48.365Z,953.98
2016-02-19T10:04:48.321Z,953.93
2016-02-19T10:05:48.293Z,953.96
2016-02-19T10:06:48.201Z,953.98
2016-02-19T10:07:48.143Z,953.92
2016-02-19T10:08:48.098Z,953.93
2016-02-19T10:09:48.023Z,953.92
2016-02-19T10:10:48.009Z,953.92
2016-02-19T10:11:47.918Z,953.93
2016-02-19T10:12:47.858Z,953.98
2016-02-19T10:13:47.815Z,954
2016-02-19T10:14:47.739Z,954.01
2016-02-19T10:15:47.695Z,954.04
2016-02-19T10:16:47.635Z,954
2016-02-19T10:17:47.591Z,954.01
2016-02-19T10:18:47.531Z,954.02
2016-02-19T10:19:47.455Z,954.06
2016-02-19T10:20:47.458Z,954.01
2016-02-19T10:21:47.336Z,954.05
2016-02-19T10:22:47.307Z,954.03
2016-02-19T10:23:47.248Z,954.06
2016-02-19T10:24:47.250Z,954.08
2016-02-19T10:25:47.127Z,954.08
2016-02-19T10:26:47.053Z,954.13
2016-02-19T10:27:47.024Z,954.1
2016-02-19T10:28:46.949Z,954.08
2016-02-19T10:29:46.904Z,954.06
2016-02-19T10:30:46.844Z,954.11
2016-02-19T10:31:46.847Z,954.09
2016-02-19T10:32:46.741Z,954.08
2016-02-19T10:33:46.666Z,954.09
2016-02-19T10:34:46.668Z,954.06
2016-02-19T10:35:46.592Z,954.09
2016-02-19T10:36:46.517Z,954.09
2016-02-19T10:37:46.442Z,954.11
2016-02-19T10:38:46.397Z,954.15
2016-02-19T10:39:46.337Z,954.14
2016-02-19T10:40:46.278Z,954.14
2016-02-19T10:41:46.233Z,954.15
2016-02-19T10:42:46.190Z,954.16
2016-02-19T10:43:46.098Z,954.16
2016-02-19T10:44:46.038Z,954.12
2016-02-19T10:45:45.995Z,954.15
2016-02-19T10:46:45.950Z,954.14
2016-02-19T10:47:45.875Z,954.17
2016-02-19T10:48:45.814Z,954.15
2016-02-19T10:49:45.786Z,954.2
2016-02-19T10:50:45.727Z,954.23
2016-02-19T10:51:45.714Z,954.23
2016-02-19T10:52:45.654Z,954.26
2016-02-19T10:53:45.547Z,954.25
2016-02-19T10:54:45.925Z,954.25
2016-02-19T10:55:45.444Z,954.22
2016-02-19T10:56:45.383Z,954.25
2016-02-19T10:57:45.323Z,954.28
2016-02-19T10:58:45.263Z,954.25
2016-02-19T10:59:45.204Z,954.24
2016-02-19T11:00:45.175Z,954.3
2016-02-19T11:01:45.100Z,954.26
2016-02-19T11:02:45.055Z,954.32
2016-02-19T11:03:44.979Z,954.32
2016-02-19T11:04:45.015Z,954.34
2016-02-19T11:05:44.876Z,954.34
2016-02-19T11:06:44.862Z,954.28
2016-02-19T11:07:44.757Z,954.31
2016-02-19T11:08:44.712Z,954.33
2016-02-19T11:09:44.653Z,954.34
2016-02-19T11:10:44.593Z,954.31
2016-02-19T11:11:44.564Z,954.33
2016-02-19T11:12:44.520Z,954.3
2016-02-19T11:13:44.429Z,954.33
2016-02-19T11:14:44.384Z,954.35
2016-02-19T11:15:44.309Z,954.38
2016-02-19T11:16:44.265Z,954.4
2016-02-19T11:17:44.206Z,954.41
2016-02-19T11:18:44.130Z,954.43
2016-02-19T11:19:44.101Z,954.4
2016-02-19T11:20:44.042Z,954.37
2016-02-19T11:21:43.966Z,954.4
2016-02-19T11:22:43.922Z,954.44
2016-02-19T11:23:43.861Z,954.34
2016-02-19T11:24:43.802Z,954.38
2016-02-19T11:25:43.758Z,954.39
2016-02-19T11:26:43.730Z,954.33
2016-02-19T11:27:43.654Z,954.41
2016-02-19T11:28:43.594Z,954.36
2016-02-19T11:29:43.519Z,954.33
2016-02-19T11:30:43.459Z,954.34
2016-02-19T11:31:43.493Z,954.33
2016-02-19T11:32:43.340Z,954.34
2016-02-19T11:33:43.310Z,954.31
2016-02-19T11:34:43.235Z,954.32
2016-02-19T11:35:43.176Z,954.33
2016-02-19T11:36:43.131Z,954.3
2016-02-19T11:37:43.057Z,954.3
2016-02-19T11:38:43.012Z,954.35
2016-02-19T11:39:42.951Z,954.31
2016-02-19T11:40:42.924Z,954.32
2016-02-19T11:41:42.864Z,954.32
2016-02-19T11:42:43.100Z,954.33
2016-02-19T11:43:42.744Z,954.36
2016-02-19T11:44:42.684Z,954.34
2016-02-19T11:45:42.639Z,954.38
2016-02-19T11:46:42.549Z,954.42
2016-02-19T11:47:42.551Z,954.39
2016-02-19T11:48:42.522Z,954.38
2016-02-19T11:49:42.417Z,954.38
2016-02-19T11:50:42.341Z,954.37
2016-02-19T11:51:42.280Z,954.37
2016-02-19T11:52:42.236Z,954.34
2016-02-19T11:53:42.177Z,954.34
2016-02-19T11:54:42.133Z,954.35
2016-02-19T11:55:42.073Z,954.39
2016-02-19T11:56:42.013Z,954.4
2016-02-19T11:57:41.953Z,954.4
2016-02-19T11:58:41.894Z,954.37
2016-02-19T11:59:41.849Z,954.37
2016-02-19T12:00:41.790Z,954.4
2016-02-19T12:01:41.730Z,954.43
2016-02-19T12:02:41.654Z,954.44
2016-02-19T12:03:41.595Z,954.39
2016-02-19T12:04:41.551Z,954.41
2016-02-19T12:05:41.507Z,954.39
2016-02-19T12:06:41.447Z,954.43
2016-02-19T12:07:41.387Z,954.43
2016-02-19T12:08:41.327Z,954.44
2016-02-19T12:09:41.267Z,954.47
2016-02-19T12:10:41.207Z,954.48
2016-02-19T12:11:41.178Z,954.45
2016-02-19T12:12:41.104Z,954.48
2016-02-19T12:13:41.075Z,954.53
2016-02-19T12:14:40.998Z,954.59
2016-02-19T12:15:40.940Z,954.6
2016-02-19T12:16:40.879Z,954.59
2016-02-19T12:17:40.819Z,954.54
2016-02-19T12:18:40.839Z,954.59
2016-02-19T12:19:40.731Z,954.6
2016-02-19T12:20:40.672Z,954.57
2016-02-19T12:21:40.643Z,954.57
2016-02-19T12:22:40.645Z,954.54
2016-02-19T12:23:40.602Z,954.5
2016-02-19T12:24:40.432Z,954.5
2016-02-19T12:25:40.403Z,954.59
2016-02-19T12:26:40.327Z,954.54
2016-02-19T12:27:40.268Z,954.55
2016-02-19T12:28:40.208Z,954.52
2016-02-19T12:29:40.164Z,954.56
2016-02-19T12:30:40.105Z,954.54
2016-02-19T12:31:40.044Z,954.52